CST,Max TemperatureF,Mean TemperatureF,Min TemperatureF,Max Dew PointF,MeanDew PointF,Min DewpointF,Max Humidity, Mean Humidity, Min Humidity, Max Sea Level PressureIn, Mean Sea Level PressureIn, Min Sea Level PressureIn, Max VisibilityMiles, Mean VisibilityMiles, Min VisibilityMiles, Max Wind SpeedMPH, Mean Wind SpeedMPH, Max Gust SpeedMPH,PrecipitationIn, CloudCover, Events, WindDirDegrees
2004-12-1,53,43,33,39,34,30,93,72,44,30.39,30.30,30.23,10,10,6,8,5,,0.00,0,,358
2004-12-2,57,47,37,42,39,35,93,78,44,30.27,30.22,30.18,10,9,6,6,1,,0.00,2,,300
2004-12-3,62,49,36,46,39,34,93,68,37,30.21,30.15,30.08,10,9,5,13,2,,0.00,3,,169
2004-12-4,60,51,42,51,45,39,100,82,55,30.16,30.11,30.07,10,7,2,8,1,,0.00,2,,144
2004-12-5,72,63,55,70,61,48,100,91,72,30.04,29.94,29.54,10,6,1,15,6,,0.35,7,Fog-Rain,147
2004-12-6,80,72,64,70,68,57,94,87,60,29.94,29.86,29.53,10,7,1,16,9,24,0.81,8,Rain,198
2004-12-7,69,58,48,54,48,44,93,71,40,30.08,29.99,29.87,10,10,10,12,5,,0.00,1,,286
2004-12-8,66,54,43,61,53,42,97,84,60,30.11,29.97,29.82,10,8,2,12,4,,0.30,5,Rain-Thunderstorm,123
2004-12-9,73,65,57,61,55,45,94,73,46,29.86,29.76,28.85,10,7,0,12,5,,0.01,2,Fog-Rain,226
2004-12-10,64,58,50,46,38,31,77,53,28,30.07,29.96,29.82,10,10,10,20,8,28,0.00,0,,292
2004-12-11,57,49,41,39,35,31,85,63,42,30.16,30.09,30.06,10,10,10,10,6,,0.00,0,,314
2004-12-12,73,56,39,64,49,36,93,76,52,30.06,30.00,29.92,10,10,6,16,6,21,0.00,0,,184
2004-12-13,60,52,43,56,32,-8,93,49,8,30.48,30.30,30.05,10,9,3,13,8,18,0.00,1,,349
2004-12-14,46,38,30,25,20,14,80,51,27,30.68,30.60,30.49,10,10,10,14,7,18,0.00,0,,4
2004-12-15,48,36,24,32,24,19,94,64,31,30.62,30.53,30.40,10,10,10,10,4,,0.00,0,,108
2004-12-16,48,40,33,41,34,27,83,72,61,30.43,30.39,30.36,10,10,7,9,4,,0.01,6,Rain,12
2004-12-17,60,50,37,38,36,34,89,66,39,30.40,30.33,30.26,10,10,7,8,4,,0.00,2,,348
2004-12-18,64,48,33,43,37,30,92,72,38,30.26,30.20,30.12,10,7,2,7,2,,0.00,0,,270
2004-12-19,59,48,35,37,29,20,86,56,23,30.37,30.28,30.20,10,10,10,20,7,30,0.00,0,,339
2004-12-20,63,46,28,45,34,22,83,62,41,30.31,30.15,30.01,10,10,10,21,8,26,0.00,1,,154
2004-12-21,75,62,48,56,52,44,90,75,46,30.03,29.94,29.86,10,10,9,16,9,23,0.08,5,Rain,144
2004-12-22,63,50,35,59,49,29,94,88,76,30.09,29.81,29.67,10,7,0,21,10,28,1.06,8,Fog-Rain-Thunderstorm,21
2004-12-23,37,32,28,28,22,19,79,66,53,30.36,30.28,30.11,10,10,10,20,12,24,0.00,4,,21
2004-12-24,34,30,25,17,16,14,72,58,46,30.43,30.33,30.23,10,10,10,15,10,21,0.00,2,,12
2004-12-25,42,34,24,22,18,13,84,60,31,30.30,30.22,30.15,10,10,10,9,5,,0.00,0,,1
2004-12-26,55,39,23,30,23,18,88,63,24,30.45,30.34,30.25,10,10,7,8,1,,0.00,0,,289
2004-12-27,60,44,28,33,29,25,92,64,28,30.55,30.49,30.45,10,9,6,6,1,,0.00,0,,109
2004-12-28,64,47,30,41,34,28,92,65,31,30.50,30.42,30.35,10,10,7,12,3,,0.00,0,,141
2004-12-29,71,56,42,52,47,40,92,73,45,30.41,30.33,30.27,10,10,6,8,5,,0.00,5,,139
2004-12-30,72,61,50,58,53,48,100,86,59,30.28,30.23,30.17,10,4,0,14,6,,0.00,3,Fog,140
2004-12-31,73,65,57,61,57,54,87,79,64,30.27,30.22,30.19,10,10,7,13,8,,0.00,3,,133